Wind From: 11-12-2017 04:25 Until: 16:00 warning for: Wind Level: Orange info button

Power and phone distribution networks may be disrupted for relatively long periods., Roofs and chimneys can be damaged. , Tree branches may break. , Vehicles can be deported. , Traffic may be disrupted, particularly on secondary roads in forest areas. Limit your trips. , Limit your speed in highway driving, especially if you drive a vehicle or hitch sensitive to wind. , Do not go for walks in forests or along the coast., In town, be vigilant against possible falling objects., Do not work on roofs and do not touch any electrical line fallen on the ground., Store or secure sensitive objects to wind or likely to be damaged., Always install power generators outside buildings. 


Meteo18 Weather Cam more information Meteo18 Weather Cam


Thunder radar more information blitzortung!


Rain radar more information rain snow radar


Visit our other weather sites:

Template documentation
and downloads

And another site



Weather Underground History page Text

Daily Summary for May 5, 2017 Units:  Metric    English   Both
« Previous Day
Next Day »
Daily Weekly Monthly Yearly Custom
  High: Low: Average:
Temperature: 20.6 °C 4.9 °C 13 °C
Dew Point: 11.4 °C 4.2 °C 7.5 °C
Humidity: 96 % 46 % 72 %
Wind Speed: 19.3 km/h 0.0 km/h 4.9 km/h
Wind Gust: 27.4 km/h - -
Wind:- - East
Pressure: 1018.8 hPa 1009.0 hPa -
Precipitation: 0.0 mm    
Historical Graphs
 
 
Tabular Data for May 5, 2017
Time Temperature Dew Point Pressure Wind Wind Speed Wind Gust Humidity Rainfall Rate (Hourly)
00:02 8.6 °C 7.1 °C 1018.8 hPa Calm   1.6 km/h 90 % 0.0 mm
00:07 8.3 °C 6.6 °C 1018.8 hPa Calm   1.6 km/h 89 % 0.0 mm
00:12 7.9 °C 6.2 °C 1018.8 hPa Calm   1.6 km/h 89 % 0.0 mm
00:17 7.8 °C 6.4 °C 1018.8 hPa Calm     91 % 0.0 mm
00:22 7.9 °C 6.7 °C 1018.8 hPa Calm   1.6 km/h 92 % 0.0 mm
00:32 7.4 °C 6.2 °C 1018.8 hPa West 1.6 km/h 1.6 km/h 92 % 0.0 mm
00:37 7.2 °C 6.0 °C 1018.8 hPa Calm   1.6 km/h 92 % 0.0 mm
00:42 7.3 °C 6.4 °C 1018.8 hPa Calm   1.6 km/h 94 % 0.0 mm
00:47 7.5 °C 6.4 °C 1018.8 hPa WNW 3.2 km/h 3.2 km/h 93 % 0.0 mm
00:52 7.3 °C 6.2 °C 1018.8 hPa WNW 1.6 km/h 3.2 km/h 93 % 0.0 mm
00:57 7.6 °C 6.7 °C 1018.8 hPa Calm   3.2 km/h 94 % 0.0 mm
01:02 7.5 °C 6.4 °C 1018.8 hPa NW 1.6 km/h 3.2 km/h 93 % 0.0 mm
01:07 7.3 °C 6.2 °C 1018.8 hPa NNW 1.6 km/h 1.6 km/h 93 % 0.0 mm
01:12 7.1 °C 5.9 °C 1018.8 hPa NNW 1.6 km/h 3.2 km/h 92 % 0.0 mm
01:17 6.9 °C 5.8 °C 1018.8 hPa Calm   3.2 km/h 93 % 0.0 mm
01:22 6.9 °C 5.8 °C 1018.8 hPa Calm   3.2 km/h 93 % 0.0 mm
01:27 6.5 °C 5.3 °C 1018.8 hPa North 1.6 km/h 3.2 km/h 92 % 0.0 mm
01:32 6.2 °C 5.0 °C 1018.8 hPa Calm   3.2 km/h 92 % 0.0 mm
01:37 6.3 °C 5.3 °C 1018.5 hPa Calm   3.2 km/h 93 % 0.0 mm
01:42 6.3 °C 5.3 °C 1018.5 hPa NW 1.6 km/h 3.2 km/h 93 % 0.0 mm
01:47 6.3 °C 5.4 °C 1018.5 hPa WNW 1.6 km/h 3.2 km/h 94 % 0.0 mm
01:52 6.2 °C 5.3 °C 1018.5 hPa WNW 1.6 km/h 3.2 km/h 94 % 0.0 mm
01:57 6.2 °C 5.3 °C 1018.5 hPa Calm   1.6 km/h 94 % 0.0 mm
02:02 6.4 °C 5.7 °C 1018.5 hPa Calm   1.6 km/h 95 % 0.0 mm
02:12 6.8 °C 6.1 °C 1018.2 hPa Calm     95 % 0.0 mm
02:17 6.7 °C 5.8 °C 1018.2 hPa North 1.6 km/h 3.2 km/h 94 % 0.0 mm
02:22 6.7 °C 5.8 °C 1018.2 hPa North 1.6 km/h 3.2 km/h 94 % 0.0 mm
02:27 6.7 °C 5.8 °C 1018.2 hPa NNE 1.6 km/h 3.2 km/h 94 % 0.0 mm
02:32 6.6 °C 5.7 °C 1018.2 hPa Calm   3.2 km/h 94 % 0.0 mm
02:37 6.5 °C 5.6 °C 1018.2 hPa Calm   3.2 km/h 94 % 0.0 mm
02:42 6.4 °C 5.5 °C 1018.2 hPa Calm   3.2 km/h 94 % 0.0 mm
02:47 6.2 °C 5.2 °C 1018.2 hPa Calm   1.6 km/h 93 % 0.0 mm
02:52 6.3 °C 5.6 °C 1017.8 hPa Calm   1.6 km/h 95 % 0.0 mm
02:57 6.3 °C 5.6 °C 1018.2 hPa Calm   1.6 km/h 95 % 0.0 mm
03:02 6.3 °C 5.4 °C 1018.2 hPa Calm   1.6 km/h 94 % 0.0 mm
03:07 6.3 °C 5.4 °C 1018.2 hPa Calm   1.6 km/h 94 % 0.0 mm
03:12 6.4 °C 5.7 °C 1018.2 hPa NNW 1.6 km/h   95 % 0.0 mm
03:22 6.4 °C 5.5 °C 1018.2 hPa Calm   1.6 km/h 94 % 0.0 mm
03:27 6.3 °C 5.6 °C 1018.2 hPa Calm   1.6 km/h 95 % 0.0 mm
03:32 6.2 °C 5.3 °C 1017.8 hPa Calm     94 % 0.0 mm
03:37 5.9 °C 5.0 °C 1017.8 hPa Calm     94 % 0.0 mm
03:42 5.8 °C 4.9 °C 1017.8 hPa Calm     94 % 0.0 mm
03:47 5.9 °C 5.2 °C 1017.8 hPa Calm     95 % 0.0 mm
03:52 5.9 °C 5.2 °C 1017.8 hPa Calm     95 % 0.0 mm
03:57 5.7 °C 4.8 °C 1018.2 hPa Calm     94 % 0.0 mm
04:02 5.8 °C 5.1 °C 1017.8 hPa NNW 1.6 km/h   95 % 0.0 mm
04:07 5.7 °C 5.0 °C 1017.8 hPa North 1.6 km/h 3.2 km/h 95 % 0.0 mm
04:12 5.9 °C 5.3 °C 1017.8 hPa North 1.6 km/h 3.2 km/h 96 % 0.0 mm
04:17 6.2 °C 5.6 °C 1017.8 hPa Calm   3.2 km/h 96 % 0.0 mm
04:22 6.1 °C 5.4 °C 1017.8 hPa Calm   1.6 km/h 95 % 0.0 mm
04:27 5.8 °C 4.9 °C 1017.8 hPa Calm   1.6 km/h 94 % 0.0 mm
04:32 5.7 °C 5.0 °C 1017.8 hPa Calm     95 % 0.0 mm
04:37 5.7 °C 5.0 °C 1017.8 hPa Calm     95 % 0.0 mm
04:42 5.8 °C 5.1 °C 1017.8 hPa Calm     95 % 0.0 mm
04:47 5.9 °C 5.2 °C 1017.8 hPa Calm     95 % 0.0 mm
04:52 6.0 °C 5.3 °C 1017.8 hPa Calm     95 % 0.0 mm
04:57 5.8 °C 4.9 °C 1017.8 hPa Calm     94 % 0.0 mm
05:02 5.4 °C 4.5 °C 1018.2 hPa Calm     94 % 0.0 mm
05:12 5.4 °C 4.7 °C 1017.8 hPa Calm     95 % 0.0 mm
05:17 5.3 °C 4.4 °C 1017.8 hPa Calm     94 % 0.0 mm
05:22 5.4 °C 4.7 °C 1017.8 hPa Calm     95 % 0.0 mm
05:32 5.2 °C 4.5 °C 1017.8 hPa Calm     95 % 0.0 mm
05:37 5.3 °C 4.7 °C 1017.8 hPa Calm   1.6 km/h 96 % 0.0 mm
05:42 5.3 °C 4.6 °C 1017.8 hPa North 1.6 km/h 1.6 km/h 95 % 0.0 mm
05:47 5.2 °C 4.5 °C 1017.8 hPa NNW 1.6 km/h 3.2 km/h 95 % 0.0 mm
05:52 5.1 °C 4.4 °C 1017.8 hPa Calm   3.2 km/h 95 % 0.0 mm
05:57 4.9 °C 4.2 °C 1017.8 hPa Calm   3.2 km/h 95 % 0.0 mm
06:02 5.1 °C 4.5 °C 1017.8 hPa Calm   1.6 km/h 96 % 0.0 mm
06:12 5.1 °C 4.5 °C 1017.8 hPa Calm   1.6 km/h 96 % 0.0 mm
06:17 5.1 °C 4.5 °C 1017.5 hPa Calm   1.6 km/h 96 % 0.0 mm
06:22 5.2 °C 4.6 °C 1017.8 hPa Calm   1.6 km/h 96 % 0.0 mm
06:32 5.1 °C 4.5 °C 1017.8 hPa North 1.6 km/h 1.6 km/h 96 % 0.0 mm
06:37 5.1 °C 4.5 °C 1017.8 hPa Calm   1.6 km/h 96 % 0.0 mm
06:42 5.2 °C 4.6 °C 1017.8 hPa Calm   1.6 km/h 96 % 0.0 mm
06:47 5.3 °C 4.7 °C 1017.8 hPa Calm   1.6 km/h 96 % 0.0 mm
06:52 5.4 °C 4.7 °C 1017.8 hPa NNW 1.6 km/h 1.6 km/h 95 % 0.0 mm
07:02 5.7 °C 5.0 °C 1017.8 hPa Calm   3.2 km/h 95 % 0.0 mm
07:12 5.9 °C 5.2 °C 1017.5 hPa Calm   1.6 km/h 95 % 0.0 mm
07:17 6.0 °C 5.3 °C 1017.8 hPa North 1.6 km/h   95 % 0.0 mm
07:22 6.0 °C 5.1 °C 1017.5 hPa Calm   1.6 km/h 94 % 0.0 mm
07:32 6.0 °C 5.3 °C 1017.8 hPa NE 3.2 km/h 4.8 km/h 95 % 0.0 mm
07:37 6.3 °C 5.6 °C 1017.8 hPa NE 3.2 km/h 6.4 km/h 95 % 0.0 mm
07:42 6.4 °C 5.5 °C 1017.8 hPa NNE 3.2 km/h 6.4 km/h 94 % 0.0 mm
07:47 6.7 °C 5.8 °C 1017.8 hPa NNW 3.2 km/h 6.4 km/h 94 % 0.0 mm
07:52 6.8 °C 5.9 °C 1017.8 hPa NE 4.8 km/h 6.4 km/h 94 % 0.0 mm
07:57 7.1 °C 6.2 °C 1017.5 hPa NE 4.8 km/h 6.4 km/h 94 % 0.0 mm
08:02 7.3 °C 6.2 °C 1017.5 hPa NE 6.4 km/h 8.0 km/h 93 % 0.0 mm
08:12 7.8 °C 6.7 °C 1017.5 hPa NE 6.4 km/h 11.3 km/h 93 % 0.0 mm
08:17 8.1 °C 6.9 °C 1017.5 hPa NNE 6.4 km/h 11.3 km/h 92 % 0.0 mm
08:22 8.3 °C 6.9 °C 1017.5 hPa North 3.2 km/h 9.7 km/h 91 % 0.0 mm
08:32 8.8 °C 7.2 °C 1017.5 hPa Calm   8.0 km/h 90 % 0.0 mm
08:37 9.1 °C 7.5 °C 1017.5 hPa NNE 3.2 km/h 8.0 km/h 90 % 0.0 mm
08:42 9.6 °C 8.0 °C 1017.5 hPa Calm   6.4 km/h 90 % 0.0 mm
08:47 10.0 °C 8.4 °C 1017.8 hPa Calm   6.4 km/h 90 % 0.0 mm
08:52 10.2 °C 8.1 °C 1017.8 hPa Calm   6.4 km/h 87 % 0.0 mm
08:57 10.6 °C 8.5 °C 1017.8 hPa Calm   6.4 km/h 87 % 0.0 mm
09:02 10.7 °C 8.3 °C 1017.5 hPa East 4.8 km/h 4.8 km/h 85 % 0.0 mm
09:12 10.6 °C 8.0 °C 1017.5 hPa East 1.6 km/h 8.0 km/h 84 % 0.0 mm
09:17 10.7 °C 8.3 °C 1017.5 hPa NE 3.2 km/h 8.0 km/h 85 % 0.0 mm
09:22 11.0 °C 8.6 °C 1017.5 hPa Calm   8.0 km/h 85 % 0.0 mm
09:32 11.3 °C 8.7 °C 1017.5 hPa ENE 3.2 km/h 9.7 km/h 84 % 0.0 mm
09:37 11.6 °C 9.0 °C 1017.5 hPa NE 4.8 km/h 9.7 km/h 84 % 0.0 mm
09:42 11.7 °C 8.9 °C 1017.5 hPa NE 3.2 km/h 8.0 km/h 83 % 0.0 mm
09:47 11.8 °C 9.0 °C 1017.5 hPa ENE 8.0 km/h 11.3 km/h 83 % 0.0 mm
09:52 11.8 °C 9.2 °C 1017.5 hPa NE 8.0 km/h 12.9 km/h 84 % 0.0 mm
09:57 12.1 °C 9.3 °C 1017.2 hPa NE 3.2 km/h 12.9 km/h 83 % 0.0 mm
10:02 12.3 °C 9.3 °C 1017.2 hPa NE 4.8 km/h 12.9 km/h 82 % 0.0 mm
10:07 12.7 °C 9.7 °C 1017.2 hPa East 4.8 km/h 11.3 km/h 82 % 0.0 mm
10:12 12.8 °C 9.6 °C 1017.2 hPa East 8.0 km/h 12.9 km/h 81 % 0.0 mm
10:17 12.9 °C 9.0 °C 1017.2 hPa ENE 8.0 km/h 14.5 km/h 77 % 0.0 mm
10:22 13.2 °C 9.6 °C 1017.2 hPa East 6.4 km/h 14.5 km/h 79 % 0.0 mm
10:27 13.3 °C 9.4 °C 1017.2 hPa ENE 9.7 km/h 14.5 km/h 77 % 0.0 mm
10:32 13.2 °C 9.3 °C 1017.2 hPa East 4.8 km/h 14.5 km/h 77 % 0.0 mm
10:37 13.4 °C 9.6 °C 1017.2 hPa East 8.0 km/h 14.5 km/h 78 % 0.0 mm
10:42 13.5 °C 9.2 °C 1016.8 hPa ENE 3.2 km/h 17.7 km/h 75 % 0.0 mm
10:47 13.8 °C 9.6 °C 1016.8 hPa NE 9.7 km/h 17.7 km/h 76 % 0.0 mm
10:52 14.1 °C 9.3 °C 1016.8 hPa East 8.0 km/h 12.9 km/h 73 % 0.0 mm
10:57 14.2 °C 9.4 °C 1016.8 hPa NE 9.7 km/h 16.1 km/h 73 % 0.0 mm
11:02 14.3 °C 8.9 °C 1016.8 hPa ENE 11.3 km/h 17.7 km/h 70 % 0.0 mm
11:12 14.7 °C 8.9 °C 1016.5 hPa East 8.0 km/h 17.7 km/h 68 % 0.0 mm
11:17 15.0 °C 9.1 °C 1016.5 hPa NE 6.4 km/h 17.7 km/h 68 % 0.0 mm
11:22 15.1 °C 9.0 °C 1016.5 hPa ENE 6.4 km/h 17.7 km/h 67 % 0.0 mm
11:27 15.2 °C 9.3 °C 1016.5 hPa ENE 8.0 km/h 17.7 km/h 68 % 0.0 mm
11:32 15.3 °C 9.0 °C 1016.5 hPa ENE 8.0 km/h 17.7 km/h 66 % 0.0 mm
11:37 15.5 °C 9.2 °C 1016.5 hPa NE 11.3 km/h 17.7 km/h 66 % 0.0 mm
11:42 15.7 °C 8.9 °C 1016.5 hPa NE 8.0 km/h 17.7 km/h 64 % 0.0 mm
11:47 15.7 °C 8.4 °C 1016.5 hPa ENE 9.7 km/h 19.3 km/h 62 % 0.0 mm
11:52 15.8 °C 9.0 °C 1016.1 hPa ENE 14.5 km/h 22.5 km/h 64 % 0.0 mm
11:57 16.0 °C 9.2 °C 1016.1 hPa NE 11.3 km/h 22.5 km/h 64 % 0.0 mm
12:02 15.9 °C 8.4 °C 1016.1 hPa ENE 8.0 km/h 20.9 km/h 61 % 0.0 mm
12:07 16.2 °C 8.7 °C 1016.1 hPa East 9.7 km/h 20.9 km/h 61 % 0.0 mm
12:12 16.3 °C 8.8 °C 1016.1 hPa ENE 14.5 km/h 19.3 km/h 61 % 0.0 mm
12:17 16.2 °C 8.7 °C 1016.1 hPa East 12.9 km/h 22.5 km/h 61 % 0.0 mm
12:22 16.3 °C 8.0 °C 1016.1 hPa East 11.3 km/h 24.1 km/h 58 % 0.0 mm
12:27 16.5 °C 7.4 °C 1015.8 hPa ENE 12.9 km/h 24.1 km/h 55 % 0.0 mm
12:32 16.6 °C 7.5 °C 1015.8 hPa ENE 19.3 km/h 25.7 km/h 55 % 0.0 mm
12:42 16.9 °C 8.3 °C 1015.8 hPa East 9.7 km/h 25.7 km/h 57 % 0.0 mm
12:47 16.8 °C 7.2 °C 1015.8 hPa ENE 16.1 km/h 24.1 km/h 53 % 0.0 mm
12:52 16.9 °C 7.8 °C 1015.8 hPa ENE 4.8 km/h 24.1 km/h 55 % 0.0 mm
12:57 17.2 °C 7.3 °C 1015.8 hPa ESE 6.4 km/h 22.5 km/h 52 % 0.0 mm
13:02 17.2 °C 7.8 °C 1015.8 hPa NNE 11.3 km/h 25.7 km/h 54 % 0.0 mm
13:07 17.4 °C 8.3 °C 1015.8 hPa ENE 9.7 km/h 25.7 km/h 55 % 0.0 mm
13:12 17.3 °C 7.6 °C 1015.8 hPa ENE 4.8 km/h 25.7 km/h 53 % 0.0 mm
13:17 17.5 °C 7.5 °C 1015.8 hPa East 12.9 km/h 20.9 km/h 52 % 0.0 mm
13:22 17.6 °C 8.2 °C 1015.8 hPa ESE 3.2 km/h 24.1 km/h 54 % 0.0 mm
13:32 17.6 °C 7.9 °C 1015.8 hPa East 9.7 km/h 27.4 km/h 53 % 0.0 mm
13:37 17.8 °C 8.9 °C 1015.5 hPa NE 14.5 km/h 27.4 km/h 56 % 0.0 mm
13:42 17.9 °C 9.0 °C 1015.5 hPa ENE 16.1 km/h 22.5 km/h 56 % 0.0 mm
13:52 18.1 °C 8.9 °C 1015.5 hPa NE 9.7 km/h 22.5 km/h 55 % 0.0 mm
13:57 18.1 °C 8.4 °C 1015.5 hPa ENE 8.0 km/h 22.5 km/h 53 % 0.0 mm
14:02 18.1 °C 8.9 °C 1015.5 hPa East 12.9 km/h 24.1 km/h 55 % 0.0 mm
14:07 18.6 °C 10.2 °C 1015.5 hPa ENE 3.2 km/h 24.1 km/h 58 % 0.0 mm
14:12 18.4 °C 8.6 °C 1015.1 hPa East 3.2 km/h 24.1 km/h 53 % 0.0 mm
14:17 18.7 °C 9.7 °C 1015.1 hPa SSW 4.8 km/h 16.1 km/h 56 % 0.0 mm
14:22 19.1 °C 9.8 °C 1015.1 hPa East 9.7 km/h 16.1 km/h 55 % 0.0 mm
14:27 19.3 °C 10.8 °C 1014.8 hPa ESE 4.8 km/h 16.1 km/h 58 % 0.0 mm
14:32 18.8 °C 9.8 °C 1014.8 hPa East 12.9 km/h 16.1 km/h 56 % 0.0 mm
14:37 18.8 °C 9.8 °C 1014.8 hPa ENE 12.9 km/h 17.7 km/h 56 % 0.0 mm
14:42 18.8 °C 10.4 °C 1014.8 hPa ENE 8.0 km/h 17.7 km/h 58 % 0.0 mm
14:47 19.0 °C 10.5 °C 1014.8 hPa East 4.8 km/h 17.7 km/h 58 % 0.0 mm
14:52 19.1 °C 10.4 °C 1014.8 hPa SE 6.4 km/h 17.7 km/h 57 % 0.0 mm
15:02 19.4 °C 10.1 °C 1014.4 hPa East 6.4 km/h 11.3 km/h 55 % 0.0 mm
15:07 19.2 °C 9.9 °C 1014.4 hPa ENE 14.5 km/h 14.5 km/h 55 % 0.0 mm
15:12 19.2 °C 9.7 °C 1014.4 hPa ESE 4.8 km/h 19.3 km/h 54 % 0.0 mm
15:17 19.2 °C 9.9 °C 1014.4 hPa SSE 4.8 km/h 19.3 km/h 55 % 0.0 mm
15:22 19.4 °C 10.9 °C 1014.4 hPa East 4.8 km/h 19.3 km/h 58 % 0.0 mm
15:27 19.7 °C 10.4 °C 1014.1 hPa NE 6.4 km/h 19.3 km/h 55 % 0.0 mm
15:32 19.4 °C 10.1 °C 1014.1 hPa ENE 3.2 km/h 16.1 km/h 55 % 0.0 mm
15:37 19.4 °C 9.9 °C 1014.1 hPa East 11.3 km/h 14.5 km/h 54 % 0.0 mm
15:42 19.8 °C 11.3 °C 1013.8 hPa NE 6.4 km/h 17.7 km/h 58 % 0.0 mm
15:52 20.5 °C 11.4 °C 1013.8 hPa ESE 4.8 km/h 19.3 km/h 56 % 0.0 mm
15:57 20.3 °C 9.5 °C 1013.8 hPa ESE 6.4 km/h 19.3 km/h 50 % 0.0 mm
16:02 20.2 °C 8.8 °C 1013.4 hPa SE 6.4 km/h 12.9 km/h 48 % 0.0 mm
16:07 20.2 °C 9.7 °C 1013.4 hPa ESE 3.2 km/h 12.9 km/h 51 % 0.0 mm
16:12 20.2 °C 9.1 °C 1013.4 hPa ENE 6.4 km/h 16.1 km/h 49 % 0.0 mm
16:17 19.9 °C 8.6 °C 1013.4 hPa East 9.7 km/h 17.7 km/h 48 % 0.0 mm
16:22 20.2 °C 9.4 °C 1013.4 hPa East 12.9 km/h 19.3 km/h 50 % 0.0 mm
16:27 20.2 °C 8.8 °C 1013.4 hPa ESE 6.4 km/h 22.5 km/h 48 % 0.0 mm
16:32 20.0 °C 8.3 °C 1013.1 hPa ENE 8.0 km/h 22.5 km/h 47 % 0.0 mm
16:37 20.1 °C 9.6 °C 1013.1 hPa ENE 8.0 km/h 22.5 km/h 51 % 0.0 mm
16:42 20.0 °C 9.3 °C 1013.1 hPa ENE 4.8 km/h 16.1 km/h 50 % 0.0 mm
16:47 19.6 °C 9.2 °C 1013.1 hPa ENE 9.7 km/h 19.3 km/h 51 % 0.0 mm
16:52 19.5 °C 9.4 °C 1012.8 hPa ENE 9.7 km/h 19.3 km/h 52 % 0.0 mm
16:57 19.6 °C 9.5 °C 1012.8 hPa NE 1.6 km/h 16.1 km/h 52 % 0.0 mm
17:02 19.9 °C 9.2 °C 1012.8 hPa ENE 11.3 km/h 16.1 km/h 50 % 0.0 mm
17:07 19.7 °C 8.7 °C 1012.8 hPa ENE 12.9 km/h 25.7 km/h 49 % 0.0 mm
17:12 19.6 °C 8.3 °C 1012.8 hPa East 19.3 km/h 25.7 km/h 48 % 0.0 mm
17:17 19.7 °C 8.7 °C 1012.8 hPa ENE 9.7 km/h 25.7 km/h 49 % 0.0 mm
17:22 19.7 °C 8.4 °C 1012.4 hPa East 9.7 km/h 22.5 km/h 48 % 0.0 mm
17:27 19.8 °C 8.8 °C 1012.4 hPa ENE 6.4 km/h 22.5 km/h 49 % 0.0 mm
17:32 20.0 °C 9.3 °C 1012.4 hPa ENE 14.5 km/h 22.5 km/h 50 % 0.0 mm
17:37 20.1 °C 9.1 °C 1012.4 hPa ENE 8.0 km/h 20.9 km/h 49 % 0.0 mm
17:42 20.2 °C 9.1 °C 1012.4 hPa ESE 3.2 km/h 19.3 km/h 49 % 0.0 mm
17:52 20.6 °C 8.9 °C 1012.4 hPa East 11.3 km/h 19.3 km/h 47 % 0.0 mm
17:57 20.4 °C 8.7 °C 1012.4 hPa ESE 9.7 km/h 19.3 km/h 47 % 0.0 mm
18:02 20.3 °C 8.9 °C 1012.1 hPa East 8.0 km/h 19.3 km/h 48 % 0.0 mm
18:07 20.2 °C 8.5 °C 1011.7 hPa ENE 14.5 km/h 19.3 km/h 47 % 0.0 mm
18:12 20.1 °C 8.4 °C 1011.7 hPa ENE 6.4 km/h 19.3 km/h 47 % 0.0 mm
18:17 19.9 °C 8.3 °C 1011.7 hPa NE 6.4 km/h 17.7 km/h 47 % 0.0 mm
18:22 19.6 °C 8.3 °C 1011.7 hPa East 11.3 km/h 17.7 km/h 48 % 0.0 mm
18:32 19.3 °C 7.4 °C 1012.1 hPa East 4.8 km/h 17.7 km/h 46 % 0.0 mm
18:42 19.3 °C 8.0 °C 1011.7 hPa ENE 4.8 km/h 12.9 km/h 48 % 0.0 mm
18:47 19.3 °C 7.7 °C 1011.7 hPa ESE 4.8 km/h 11.3 km/h 47 % 0.0 mm
18:52 19.2 °C 8.5 °C 1011.7 hPa SE 3.2 km/h 11.3 km/h 50 % 0.0 mm
18:57 19.1 °C 8.1 °C 1011.7 hPa East 1.6 km/h 9.7 km/h 49 % 0.0 mm
19:02 19.0 °C 8.6 °C 1011.7 hPa ESE 4.8 km/h 8.0 km/h 51 % 0.0 mm
19:07 18.8 °C 8.7 °C 1011.7 hPa East 4.8 km/h 8.0 km/h 52 % 0.0 mm
19:12 18.6 °C 8.3 °C 1011.7 hPa SE 3.2 km/h 6.4 km/h 51 % 0.0 mm
19:22 18.4 °C 8.1 °C 1011.4 hPa East 1.6 km/h 6.4 km/h 51 % 0.0 mm
19:27 18.3 °C 8.6 °C 1011.4 hPa East 3.2 km/h 6.4 km/h 53 % 0.0 mm
19:32 18.3 °C 7.7 °C 1011.4 hPa ENE 3.2 km/h 6.4 km/h 50 % 0.0 mm
19:37 18.3 °C 7.7 °C 1011.4 hPa ENE 3.2 km/h 6.4 km/h 50 % 0.0 mm
19:42 18.2 °C 7.9 °C 1011.4 hPa SE 3.2 km/h 12.9 km/h 51 % 0.0 mm
19:47 18.1 °C 7.8 °C 1011.4 hPa East 3.2 km/h 12.9 km/h 51 % 0.0 mm
19:52 18.0 °C 8.0 °C 1011.1 hPa ESE 1.6 km/h 9.7 km/h 52 % 0.0 mm
19:57 17.8 °C 8.1 °C 1011.1 hPa East 4.8 km/h 9.7 km/h 53 % 0.0 mm
20:02 17.7 °C 8.3 °C 1011.1 hPa ESE 3.2 km/h 9.7 km/h 54 % 0.0 mm
20:07 17.6 °C 8.2 °C 1011.1 hPa ENE 3.2 km/h 8.0 km/h 54 % 0.0 mm
20:12 17.5 °C 8.1 °C 1011.1 hPa SE 6.4 km/h 8.0 km/h 54 % 0.0 mm
20:17 17.4 °C 8.0 °C 1011.1 hPa East 4.8 km/h 14.5 km/h 54 % 0.0 mm
20:22 17.2 °C 8.1 °C 1011.1 hPa ENE 4.8 km/h 14.5 km/h 55 % 0.0 mm
20:27 17.2 °C 8.1 °C 1011.1 hPa East 3.2 km/h 14.5 km/h 55 % 0.0 mm
20:32 17.1 °C 8.3 °C 1011.1 hPa East 3.2 km/h 8.0 km/h 56 % 0.0 mm
20:37 17.0 °C 8.2 °C 1010.7 hPa East 4.8 km/h 8.0 km/h 56 % 0.0 mm
20:42 16.9 °C 8.1 °C 1010.7 hPa East 4.8 km/h 8.0 km/h 56 % 0.0 mm
20:52 16.7 °C 7.9 °C 1010.7 hPa East 4.8 km/h 9.7 km/h 56 % 0.0 mm
20:57 16.6 °C 8.0 °C 1010.7 hPa ENE 3.2 km/h 9.7 km/h 57 % 0.0 mm
21:02 16.4 °C 8.1 °C 1010.7 hPa ENE 6.4 km/h 8.0 km/h 58 % 0.0 mm
21:07 16.2 °C 8.2 °C 1010.4 hPa East 4.8 km/h 8.0 km/h 59 % 0.0 mm
21:12 16.2 °C 8.2 °C 1010.4 hPa ENE 3.2 km/h 8.0 km/h 59 % 0.0 mm
21:17 16.2 °C 7.9 °C 1010.4 hPa ENE 4.8 km/h 6.4 km/h 58 % 0.0 mm
21:22 16.3 °C 7.8 °C 1010.4 hPa ENE 8.0 km/h 11.3 km/h 57 % 0.0 mm
21:27 16.2 °C 7.7 °C 1010.4 hPa East 8.0 km/h 12.9 km/h 57 % 0.0 mm
21:32 16.2 °C 7.4 °C 1010.4 hPa ENE 6.4 km/h 12.9 km/h 56 % 0.0 mm
21:37 16.2 °C 7.1 °C 1010.4 hPa East 8.0 km/h 12.9 km/h 55 % 0.0 mm
21:42 16.2 °C 7.4 °C 1010.0 hPa ENE 14.5 km/h 14.5 km/h 56 % 0.0 mm
21:47 16.1 °C 7.6 °C 1010.0 hPa ENE 9.7 km/h 16.1 km/h 57 % 0.0 mm
21:52 15.6 °C 7.9 °C 1010.0 hPa ENE 9.7 km/h 16.1 km/h 60 % 0.0 mm
21:57 15.2 °C 8.0 °C 1010.0 hPa ENE 9.7 km/h 16.1 km/h 62 % 0.0 mm
22:02 15.0 °C 8.0 °C 1010.0 hPa ENE 8.0 km/h 14.5 km/h 63 % 0.0 mm
22:07 14.7 °C 8.2 °C 1010.0 hPa ENE 6.4 km/h 12.9 km/h 65 % 0.0 mm
22:12 14.6 °C 8.3 °C 1010.0 hPa ENE 4.8 km/h 12.9 km/h 66 % 0.0 mm
22:17 14.6 °C 8.3 °C 1010.0 hPa ENE 6.4 km/h 9.7 km/h 66 % 0.0 mm
22:22 14.5 °C 8.4 °C 1010.0 hPa ENE 9.7 km/h 9.7 km/h 67 % 0.0 mm
22:27 14.4 °C 8.3 °C 1009.7 hPa ENE 6.4 km/h 9.7 km/h 67 % 0.0 mm
22:32 14.3 °C 8.3 °C 1010.0 hPa ENE 4.8 km/h 9.7 km/h 67 % 0.0 mm
22:37 14.3 °C 8.3 °C 1009.7 hPa NE 4.8 km/h 9.7 km/h 67 % 0.0 mm
22:42 14.3 °C 8.0 °C 1009.7 hPa NE 4.8 km/h 9.7 km/h 66 % 0.0 mm
22:47 14.4 °C 7.9 °C 1009.7 hPa NE 3.2 km/h 9.7 km/h 65 % 0.0 mm
22:52 14.4 °C 7.9 °C 1009.7 hPa NE 3.2 km/h 8.0 km/h 65 % 0.0 mm
22:57 14.2 °C 7.9 °C 1009.7 hPa NE 4.8 km/h 9.7 km/h 66 % 0.0 mm
23:02 14.1 °C 8.1 °C 1009.4 hPa ENE 6.4 km/h 9.7 km/h 67 % 0.0 mm
23:07 13.9 °C 7.9 °C 1009.4 hPa NE 8.0 km/h 9.7 km/h 67 % 0.0 mm
23:12 13.7 °C 7.9 °C 1009.4 hPa NNE 3.2 km/h 9.7 km/h 68 % 0.0 mm
23:17 13.6 °C 7.8 °C 1009.4 hPa NE 4.8 km/h 9.7 km/h 68 % 0.0 mm
23:22 13.5 °C 7.7 °C 1009.4 hPa NE 6.4 km/h 9.7 km/h 68 % 0.0 mm
23:27 13.6 °C 7.6 °C 1009.4 hPa NE 9.7 km/h 12.9 km/h 67 % 0.0 mm
23:32 13.7 °C 7.7 °C 1009.4 hPa NE 6.4 km/h 12.9 km/h 67 % 0.0 mm
23:37 13.6 °C 7.8 °C 1009.0 hPa NE 8.0 km/h 12.9 km/h 68 % 0.0 mm
23:42 13.4 °C 7.6 °C 1009.0 hPa ENE 4.8 km/h 11.3 km/h 68 % 0.0 mm
23:47 13.3 °C 7.7 °C 1009.0 hPa NNE 4.8 km/h 11.3 km/h 69 % 0.0 mm
23:52 13.2 °C 7.6 °C 1009.0 hPa NNE 8.0 km/h 11.3 km/h 69 % 0.0 mm
23:57 13.2 °C 7.6 °C 1009.0 hPa NE 8.0 km/h 11.3 km/h 69 % 0.0 mm
Meteo18
Compliments of Weather Underground - 4 mb

Script developed by  Jim McMurry - jmcmurry@mwt.net Adapted for the template by  Wim van der Kuil - Leuven-Template.eu

You find our weather info also at:

European Weather Network

Weather Underground

Equipment we use:

Weather-station
Davis Vue

Weather-program
Meteohub

Weather-server
Raspberry PI 2 B+

Provider
1 and 1

Davis Vue

Meteohub

Raspberry PI 2 B+

1 and 1